Yelizovo, Russia
Current Conditions -  °F | °C
As of 2:00 PM on Sunday 23 Nov 2014 (Local Time) from UHPP Reporting Station
Broken Clouds Broken Clouds  
Wind Chill: 11°   Ceiling: 10000
Heat Index: 19°   Visibility: 6mi
Dew Point:   Wind: 7mph
Humidity: 63%   Direction: 360°N
Pressure: 29.85"   Gusts: NA
Location:  53.18°N, 158.38°E
Report Text: UHPP 230200Z 36003MPS 9999 SCT030CB BKN100 M07/M13 Q1011 NOSIGRMK MT OBSC QFE755/1007 SC070
Loading
Personal Weather Stations






























Interactive Weather Map New forecast layout! Learn more

10-Day Weather Forecast

Advertisements
Track Severe Weather on mobile